sensor_id;sensor_type;location;lat;lon;timestamp;P1;durP1;ratioP1;P2;durP2;ratioP2
12467;SDS011;57850;52.922;6.256;2023-03-25T00:01:00;9.38;;;2.50;;
12467;SDS011;57850;52.922;6.256;2023-03-25T00:03:32;11.85;;;2.97;;
12467;SDS011;57850;52.922;6.256;2023-03-25T00:06:01;11.98;;;2.63;;
12467;SDS011;57850;52.922;6.256;2023-03-25T00:08:31;13.00;;;2.85;;
12467;SDS011;57850;52.922;6.256;2023-03-25T00:11:00;17.10;;;3.25;;
12467;SDS011;57850;52.922;6.256;2023-03-25T00:13:28;12.80;;;2.45;;
12467;SDS011;57850;52.922;6.256;2023-03-25T00:15:55;13.15;;;3.00;;
12467;SDS011;57850;52.922;6.256;2023-03-25T00:18:23;14.85;;;3.60;;
12467;SDS011;57850;52.922;6.256;2023-03-25T00:20:53;16.92;;;2.88;;
12467;SDS011;57850;52.922;6.256;2023-03-25T00:23:21;9.93;;;2.72;;
12467;SDS011;57850;52.922;6.256;2023-03-25T00:25:48;19.50;;;4.03;;
12467;SDS011;57850;52.922;6.256;2023-03-25T00:28:17;16.85;;;2.88;;
12467;SDS011;57850;52.922;6.256;2023-03-25T00:30:44;10.55;;;2.92;;
12467;SDS011;57850;52.922;6.256;2023-03-25T00:33:11;13.73;;;2.90;;
12467;SDS011;57850;52.922;6.256;2023-03-25T00:35:37;18.13;;;3.80;;
12467;SDS011;57850;52.922;6.256;2023-03-25T00:38:08;25.88;;;3.33;;
12467;SDS011;57850;52.922;6.256;2023-03-25T00:40:35;16.23;;;3.03;;
12467;SDS011;57850;52.922;6.256;2023-03-25T00:43:03;11.07;;;3.20;;
12467;SDS011;57850;52.922;6.256;2023-03-25T00:45:32;17.10;;;3.65;;
12467;SDS011;57850;52.922;6.256;2023-03-25T00:47:59;15.15;;;3.22;;
12467;SDS011;57850;52.922;6.256;2023-03-25T00:50:26;19.40;;;3.83;;
12467;SDS011;57850;52.922;6.256;2023-03-25T00:52:52;16.33;;;4.22;;
12467;SDS011;57850;52.922;6.256;2023-03-25T00:55:19;18.48;;;3.60;;
12467;SDS011;57850;52.922;6.256;2023-03-25T00:57:45;16.45;;;3.15;;
12467;SDS011;57850;52.922;6.256;2023-03-25T01:00:13;14.45;;;4.43;;
12467;SDS011;57850;52.922;6.256;2023-03-25T01:02:43;13.50;;;3.08;;
12467;SDS011;57850;52.922;6.256;2023-03-25T01:05:10;19.23;;;3.88;;
12467;SDS011;57850;52.922;6.256;2023-03-25T01:07:37;27.65;;;4.10;;
12467;SDS011;57850;52.922;6.256;2023-03-25T01:10:06;13.30;;;3.53;;
12467;SDS011;57850;52.922;6.256;2023-03-25T01:12:33;17.85;;;3.58;;
12467;SDS011;57850;52.922;6.256;2023-03-25T01:15:00;13.00;;;3.10;;
12467;SDS011;57850;52.922;6.256;2023-03-25T01:17:27;17.38;;;3.67;;
12467;SDS011;57850;52.922;6.256;2023-03-25T01:19:55;12.27;;;3.25;;
12467;SDS011;57850;52.922;6.256;2023-03-25T01:22:21;24.33;;;3.50;;
12467;SDS011;57850;52.922;6.256;2023-03-25T01:24:48;19.48;;;4.13;;
12467;SDS011;57850;52.922;6.256;2023-03-25T01:27:14;22.52;;;3.67;;
12467;SDS011;57850;52.922;6.256;2023-03-25T01:29:41;22.33;;;4.57;;
12467;SDS011;57850;52.922;6.256;2023-03-25T01:32:07;22.40;;;4.38;;
12467;SDS011;57850;52.922;6.256;2023-03-25T01:34:34;21.67;;;3.60;;
12467;SDS011;57850;52.922;6.256;2023-03-25T01:37:03;22.88;;;4.45;;
12467;SDS011;57850;52.922;6.256;2023-03-25T01:39:30;20.75;;;3.58;;
12467;SDS011;57850;52.922;6.256;2023-03-25T01:41:57;18.23;;;3.45;;
12467;SDS011;57850;52.922;6.256;2023-03-25T01:47:27;18.52;;;3.17;;
12467;SDS011;57850;52.922;6.256;2023-03-25T01:49:54;13.35;;;3.22;;
12467;SDS011;57850;52.922;6.256;2023-03-25T01:52:23;20.40;;;3.67;;
12467;SDS011;57850;52.922;6.256;2023-03-25T01:54:53;21.50;;;4.28;;
12467;SDS011;57850;52.922;6.256;2023-03-25T01:57:21;22.63;;;3.58;;
12467;SDS011;57850;52.922;6.256;2023-03-25T01:59:50;26.77;;;4.75;;
12467;SDS011;57850;52.922;6.256;2023-03-25T02:02:19;17.08;;;3.88;;
12467;SDS011;57850;52.922;6.256;2023-03-25T02:04:49;27.92;;;4.28;;
12467;SDS011;57850;52.922;6.256;2023-03-25T02:07:24;17.88;;;4.10;;
12467;SDS011;57850;52.922;6.256;2023-03-25T02:09:54;17.33;;;4.13;;
12467;SDS011;57850;52.922;6.256;2023-03-25T02:12:21;16.48;;;3.90;;
12467;SDS011;57850;52.922;6.256;2023-03-25T02:14:47;26.80;;;4.38;;
12467;SDS011;57850;52.922;6.256;2023-03-25T02:17:17;15.73;;;3.70;;
12467;SDS011;57850;52.922;6.256;2023-03-25T02:19:59;18.83;;;4.05;;
12467;SDS011;57850;52.922;6.256;2023-03-25T02:22:57;28.65;;;4.35;;
12467;SDS011;57850;52.922;6.256;2023-03-25T02:25:54;24.70;;;4.82;;
12467;SDS011;57850;52.922;6.256;2023-03-25T02:28:41;16.42;;;4.85;;
12467;SDS011;57850;52.922;6.256;2023-03-25T02:31:16;19.38;;;4.30;;
12467;SDS011;57850;52.922;6.256;2023-03-25T02:40:00;21.33;;;4.32;;
12467;SDS011;57850;52.922;6.256;2023-03-25T02:42:32;27.05;;;4.65;;
12467;SDS011;57850;52.922;6.256;2023-03-25T02:45:04;22.50;;;4.15;;
12467;SDS011;57850;52.922;6.256;2023-03-25T02:47:37;20.55;;;4.07;;
12467;SDS011;57850;52.922;6.256;2023-03-25T02:50:10;24.77;;;4.57;;
12467;SDS011;57850;52.922;6.256;2023-03-25T02:52:42;16.95;;;4.82;;
12467;SDS011;57850;52.922;6.256;2023-03-25T02:55:13;18.35;;;4.13;;
12467;SDS011;57850;52.922;6.256;2023-03-25T02:57:44;25.05;;;4.53;;
12467;SDS011;57850;52.922;6.256;2023-03-25T03:00:17;18.23;;;4.10;;
12467;SDS011;57850;52.922;6.256;2023-03-25T03:02:49;21.48;;;4.35;;
12467;SDS011;57850;52.922;6.256;2023-03-25T03:05:24;24.90;;;4.60;;
12467;SDS011;57850;52.922;6.256;2023-03-25T03:07:52;20.08;;;4.22;;
12467;SDS011;57850;52.922;6.256;2023-03-25T03:10:31;22.95;;;5.45;;
12467;SDS011;57850;52.922;6.256;2023-03-25T03:13:07;21.02;;;5.00;;
12467;SDS011;57850;52.922;6.256;2023-03-25T03:15:45;22.50;;;4.45;;
12467;SDS011;57850;52.922;6.256;2023-03-25T03:18:22;18.83;;;4.32;;
12467;SDS011;57850;52.922;6.256;2023-03-25T03:21:03;23.35;;;5.00;;
12467;SDS011;57850;52.922;6.256;2023-03-25T03:23:38;18.95;;;4.25;;
12467;SDS011;57850;52.922;6.256;2023-03-25T03:26:19;19.20;;;4.07;;
12467;SDS011;57850;52.922;6.256;2023-03-25T03:28:55;17.27;;;4.32;;
12467;SDS011;57850;52.922;6.256;2023-03-25T03:31:30;18.00;;;4.72;;
12467;SDS011;57850;52.922;6.256;2023-03-25T03:34:03;27.05;;;4.22;;
12467;SDS011;57850;52.922;6.256;2023-03-25T03:36:37;23.13;;;5.10;;
12467;SDS011;57850;52.922;6.256;2023-03-25T03:39:08;16.23;;;3.88;;
12467;SDS011;57850;52.922;6.256;2023-03-25T03:41:39;18.65;;;3.85;;
12467;SDS011;57850;52.922;6.256;2023-03-25T03:44:09;28.92;;;4.38;;
12467;SDS011;57850;52.922;6.256;2023-03-25T03:46:40;19.10;;;4.38;;
12467;SDS011;57850;52.922;6.256;2023-03-25T03:49:12;23.95;;;4.05;;
12467;SDS011;57850;52.922;6.256;2023-03-25T03:51:43;29.27;;;4.45;;
12467;SDS011;57850;52.922;6.256;2023-03-25T03:54:14;15.30;;;4.10;;
12467;SDS011;57850;52.922;6.256;2023-03-25T03:56:48;17.98;;;4.20;;
12467;SDS011;57850;52.922;6.256;2023-03-25T03:59:22;22.27;;;5.28;;
12467;SDS011;57850;52.922;6.256;2023-03-25T04:01:54;24.00;;;4.97;;
12467;SDS011;57850;52.922;6.256;2023-03-25T04:04:23;21.98;;;4.28;;
12467;SDS011;57850;52.922;6.256;2023-03-25T04:06:53;13.60;;;4.22;;
12467;SDS011;57850;52.922;6.256;2023-03-25T04:09:23;25.50;;;4.50;;
12467;SDS011;57850;52.922;6.256;2023-03-25T04:11:59;23.67;;;4.85;;
12467;SDS011;57850;52.922;6.256;2023-03-25T04:14:30;16.08;;;4.57;;
12467;SDS011;57850;52.922;6.256;2023-03-25T04:16:57;14.68;;;4.10;;
12467;SDS011;57850;52.922;6.256;2023-03-25T04:19:24;19.15;;;4.38;;
12467;SDS011;57850;52.922;6.256;2023-03-25T04:21:51;18.58;;;5.53;;
12467;SDS011;57850;52.922;6.256;2023-03-25T04:24:18;21.65;;;5.50;;
12467;SDS011;57850;52.922;6.256;2023-03-25T04:26:44;17.95;;;5.00;;
12467;SDS011;57850;52.922;6.256;2023-03-25T04:29:13;17.52;;;4.88;;
12467;SDS011;57850;52.922;6.256;2023-03-25T04:31:39;19.65;;;5.22;;
12467;SDS011;57850;52.922;6.256;2023-03-25T04:34:10;15.48;;;4.60;;
12467;SDS011;57850;52.922;6.256;2023-03-25T04:36:37;25.60;;;5.38;;
12467;SDS011;57850;52.922;6.256;2023-03-25T04:39:05;23.33;;;6.18;;
12467;SDS011;57850;52.922;6.256;2023-03-25T04:41:32;20.80;;;4.93;;
12467;SDS011;57850;52.922;6.256;2023-03-25T04:43:59;19.23;;;5.18;;
12467;SDS011;57850;52.922;6.256;2023-03-25T04:46:27;24.77;;;5.28;;
12467;SDS011;57850;52.922;6.256;2023-03-25T04:48:54;27.90;;;5.40;;
12467;SDS011;57850;52.922;6.256;2023-03-25T04:51:21;22.65;;;4.88;;
12467;SDS011;57850;52.922;6.256;2023-03-25T04:53:47;25.60;;;5.40;;
12467;SDS011;57850;52.922;6.256;2023-03-25T04:56:15;22.23;;;4.93;;
12467;SDS011;57850;52.922;6.256;2023-03-25T04:58:42;20.45;;;4.57;;
12467;SDS011;57850;52.922;6.256;2023-03-25T05:01:10;22.35;;;4.72;;
12467;SDS011;57850;52.922;6.256;2023-03-25T05:03:48;24.33;;;5.28;;
12467;SDS011;57850;52.922;6.256;2023-03-25T05:06:15;20.40;;;4.82;;
12467;SDS011;57850;52.922;6.256;2023-03-25T05:08:42;27.95;;;6.47;;
12467;SDS011;57850;52.922;6.256;2023-03-25T05:11:09;24.48;;;5.57;;
12467;SDS011;57850;52.922;6.256;2023-03-25T05:13:35;25.85;;;5.45;;
12467;SDS011;57850;52.922;6.256;2023-03-25T05:16:02;23.60;;;5.15;;
12467;SDS011;57850;52.922;6.256;2023-03-25T05:18:29;27.08;;;5.43;;
12467;SDS011;57850;52.922;6.256;2023-03-25T05:20:57;27.13;;;4.60;;
12467;SDS011;57850;52.922;6.256;2023-03-25T05:23:26;27.27;;;5.38;;
12467;SDS011;57850;52.922;6.256;2023-03-25T05:25:56;17.48;;;4.63;;
12467;SDS011;57850;52.922;6.256;2023-03-25T05:28:22;28.23;;;5.38;;
12467;SDS011;57850;52.922;6.256;2023-03-25T05:30:49;30.35;;;6.38;;
12467;SDS011;57850;52.922;6.256;2023-03-25T05:33:16;28.55;;;5.63;;
12467;SDS011;57850;52.922;6.256;2023-03-25T05:35:43;20.20;;;4.32;;
12467;SDS011;57850;52.922;6.256;2023-03-25T05:38:12;19.15;;;4.75;;
12467;SDS011;57850;52.922;6.256;2023-03-25T05:40:42;25.20;;;5.45;;
12467;SDS011;57850;52.922;6.256;2023-03-25T05:43:09;28.50;;;5.30;;
12467;SDS011;57850;52.922;6.256;2023-03-25T05:45:36;25.65;;;5.40;;
12467;SDS011;57850;52.922;6.256;2023-03-25T05:48:03;24.48;;;5.65;;
12467;SDS011;57850;52.922;6.256;2023-03-25T05:50:30;27.58;;;4.78;;
12467;SDS011;57850;52.922;6.256;2023-03-25T05:52:56;18.38;;;4.55;;
12467;SDS011;57850;52.922;6.256;2023-03-25T05:55:27;26.58;;;4.72;;
12467;SDS011;57850;52.922;6.256;2023-03-25T05:57:53;20.50;;;5.45;;
12467;SDS011;57850;52.922;6.256;2023-03-25T06:00:21;26.05;;;5.13;;
12467;SDS011;57850;52.922;6.256;2023-03-25T06:02:48;29.27;;;4.63;;
12467;SDS011;57850;52.922;6.256;2023-03-25T06:05:16;24.30;;;5.78;;
12467;SDS011;57850;52.922;6.256;2023-03-25T06:07:47;19.70;;;4.72;;
12467;SDS011;57850;52.922;6.256;2023-03-25T06:10:15;17.48;;;5.10;;
12467;SDS011;57850;52.922;6.256;2023-03-25T06:12:44;23.85;;;5.90;;
12467;SDS011;57850;52.922;6.256;2023-03-25T06:15:14;26.75;;;4.97;;
12467;SDS011;57850;52.922;6.256;2023-03-25T06:17:44;26.77;;;5.00;;
12467;SDS011;57850;52.922;6.256;2023-03-25T06:20:12;19.75;;;4.18;;
12467;SDS011;57850;52.922;6.256;2023-03-25T06:22:41;20.80;;;4.28;;
12467;SDS011;57850;52.922;6.256;2023-03-25T06:25:09;20.52;;;4.68;;
12467;SDS011;57850;52.922;6.256;2023-03-25T06:27:41;28.48;;;4.75;;
12467;SDS011;57850;52.922;6.256;2023-03-25T06:30:10;18.88;;;4.38;;
12467;SDS011;57850;52.922;6.256;2023-03-25T06:32:38;19.10;;;4.30;;
12467;SDS011;57850;52.922;6.256;2023-03-25T06:35:05;28.42;;;4.35;;
12467;SDS011;57850;52.922;6.256;2023-03-25T06:37:34;17.23;;;4.10;;
12467;SDS011;57850;52.922;6.256;2023-03-25T06:40:01;21.55;;;4.03;;
12467;SDS011;57850;52.922;6.256;2023-03-25T06:42:29;14.32;;;3.95;;
12467;SDS011;57850;52.922;6.256;2023-03-25T06:44:56;17.27;;;4.10;;
12467;SDS011;57850;52.922;6.256;2023-03-25T06:47:26;22.40;;;4.47;;
12467;SDS011;57850;52.922;6.256;2023-03-25T06:49:52;18.80;;;3.83;;
12467;SDS011;57850;52.922;6.256;2023-03-25T06:52:19;22.27;;;4.32;;
12467;SDS011;57850;52.922;6.256;2023-03-25T06:54:46;16.13;;;4.00;;
12467;SDS011;57850;52.922;6.256;2023-03-25T06:57:12;19.67;;;4.00;;
12467;SDS011;57850;52.922;6.256;2023-03-25T06:59:39;16.55;;;3.67;;
12467;SDS011;57850;52.922;6.256;2023-03-25T07:02:06;18.33;;;3.72;;
12467;SDS011;57850;52.922;6.256;2023-03-25T07:04:34;23.23;;;4.25;;
12467;SDS011;57850;52.922;6.256;2023-03-25T07:07:01;18.40;;;4.03;;
12467;SDS011;57850;52.922;6.256;2023-03-25T07:09:27;17.77;;;3.55;;
12467;SDS011;57850;52.922;6.256;2023-03-25T07:11:54;14.00;;;3.80;;
12467;SDS011;57850;52.922;6.256;2023-03-25T07:14:21;27.90;;;4.50;;
12467;SDS011;57850;52.922;6.256;2023-03-25T07:16:48;18.13;;;4.40;;
12467;SDS011;57850;52.922;6.256;2023-03-25T07:19:15;29.55;;;4.80;;
12467;SDS011;57850;52.922;6.256;2023-03-25T07:21:43;19.30;;;4.60;;
12467;SDS011;57850;52.922;6.256;2023-03-25T07:24:09;21.23;;;3.97;;
12467;SDS011;57850;52.922;6.256;2023-03-25T07:26:36;23.02;;;4.88;;
12467;SDS011;57850;52.922;6.256;2023-03-25T07:29:03;17.30;;;4.57;;
12467;SDS011;57850;52.922;6.256;2023-03-25T07:31:30;27.25;;;4.97;;
12467;SDS011;57850;52.922;6.256;2023-03-25T07:33:57;20.25;;;4.57;;
12467;SDS011;57850;52.922;6.256;2023-03-25T07:36:26;25.38;;;4.85;;
12467;SDS011;57850;52.922;6.256;2023-03-25T07:38:54;19.70;;;4.18;;
12467;SDS011;57850;52.922;6.256;2023-03-25T07:41:21;21.67;;;4.50;;
12467;SDS011;57850;52.922;6.256;2023-03-25T07:43:48;21.02;;;3.80;;
12467;SDS011;57850;52.922;6.256;2023-03-25T07:46:14;15.80;;;3.53;;
12467;SDS011;57850;52.922;6.256;2023-03-25T07:48:41;21.98;;;3.90;;
12467;SDS011;57850;52.922;6.256;2023-03-25T07:51:08;15.05;;;4.15;;
12467;SDS011;57850;52.922;6.256;2023-03-25T07:53:34;19.10;;;4.65;;
12467;SDS011;57850;52.922;6.256;2023-03-25T07:56:05;15.55;;;3.90;;
12467;SDS011;57850;52.922;6.256;2023-03-25T07:58:32;15.80;;;4.15;;
12467;SDS011;57850;52.922;6.256;2023-03-25T08:00:59;24.80;;;4.25;;
12467;SDS011;57850;52.922;6.256;2023-03-25T08:03:26;21.15;;;4.10;;
12467;SDS011;57850;52.922;6.256;2023-03-25T08:05:53;22.30;;;4.68;;
12467;SDS011;57850;52.922;6.256;2023-03-25T08:08:20;27.70;;;4.28;;
12467;SDS011;57850;52.922;6.256;2023-03-25T08:10:47;27.05;;;4.85;;
12467;SDS011;57850;52.922;6.256;2023-03-25T08:13:15;24.90;;;5.88;;
12467;SDS011;57850;52.922;6.256;2023-03-25T08:15:41;21.75;;;4.40;;
12467;SDS011;57850;52.922;6.256;2023-03-25T08:18:08;30.50;;;4.70;;
12467;SDS011;57850;52.922;6.256;2023-03-25T08:20:35;27.73;;;4.75;;
12467;SDS011;57850;52.922;6.256;2023-03-25T08:23:01;17.92;;;3.92;;
12467;SDS011;57850;52.922;6.256;2023-03-25T08:25:28;32.45;;;5.70;;
12467;SDS011;57850;52.922;6.256;2023-03-25T08:27:55;21.67;;;4.10;;
12467;SDS011;57850;52.922;6.256;2023-03-25T08:30:23;19.63;;;3.85;;
12467;SDS011;57850;52.922;6.256;2023-03-25T08:32:50;20.80;;;4.90;;
12467;SDS011;57850;52.922;6.256;2023-03-25T08:35:19;25.40;;;3.97;;
12467;SDS011;57850;52.922;6.256;2023-03-25T08:37:46;18.85;;;5.00;;
12467;SDS011;57850;52.922;6.256;2023-03-25T08:40:13;19.60;;;4.45;;
12467;SDS011;57850;52.922;6.256;2023-03-25T08:42:42;19.55;;;4.38;;
12467;SDS011;57850;52.922;6.256;2023-03-25T08:45:09;14.20;;;4.13;;
12467;SDS011;57850;52.922;6.256;2023-03-25T08:47:38;14.63;;;3.75;;
12467;SDS011;57850;52.922;6.256;2023-03-25T08:50:06;23.42;;;4.57;;
12467;SDS011;57850;52.922;6.256;2023-03-25T08:52:34;18.58;;;3.92;;
12467;SDS011;57850;52.922;6.256;2023-03-25T08:55:00;19.13;;;5.22;;
12467;SDS011;57850;52.922;6.256;2023-03-25T08:57:27;19.30;;;4.45;;
12467;SDS011;57850;52.922;6.256;2023-03-25T08:59:53;23.92;;;5.05;;
12467;SDS011;57850;52.922;6.256;2023-03-25T09:02:20;16.58;;;3.53;;
12467;SDS011;57850;52.922;6.256;2023-03-25T09:04:48;15.38;;;3.30;;
12467;SDS011;57850;52.922;6.256;2023-03-25T09:07:15;19.70;;;4.22;;
12467;SDS011;57850;52.922;6.256;2023-03-25T09:09:43;21.33;;;3.83;;
12467;SDS011;57850;52.922;6.256;2023-03-25T09:12:10;14.55;;;3.58;;
12467;SDS011;57850;52.922;6.256;2023-03-25T09:14:37;15.32;;;3.67;;
12467;SDS011;57850;52.922;6.256;2023-03-25T09:17:04;15.27;;;3.78;;
12467;SDS011;57850;52.922;6.256;2023-03-25T09:19:32;15.60;;;3.75;;
12467;SDS011;57850;52.922;6.256;2023-03-25T09:22:00;27.77;;;4.63;;
12467;SDS011;57850;52.922;6.256;2023-03-25T09:24:27;18.73;;;4.45;;
12467;SDS011;57850;52.922;6.256;2023-03-25T09:26:58;19.33;;;3.92;;
12467;SDS011;57850;52.922;6.256;2023-03-25T09:29:25;16.08;;;3.60;;
12467;SDS011;57850;52.922;6.256;2023-03-25T09:31:52;18.70;;;3.75;;
12467;SDS011;57850;52.922;6.256;2023-03-25T09:34:19;13.73;;;3.13;;
12467;SDS011;57850;52.922;6.256;2023-03-25T09:36:45;12.70;;;3.35;;
12467;SDS011;57850;52.922;6.256;2023-03-25T09:39:13;16.85;;;4.57;;
12467;SDS011;57850;52.922;6.256;2023-03-25T09:41:45;18.60;;;4.28;;
12467;SDS011;57850;52.922;6.256;2023-03-25T09:44:27;21.45;;;4.22;;
12467;SDS011;57850;52.922;6.256;2023-03-25T09:46:58;13.55;;;3.55;;
12467;SDS011;57850;52.922;6.256;2023-03-25T09:49:30;15.13;;;3.60;;
12467;SDS011;57850;52.922;6.256;2023-03-25T09:52:02;18.52;;;4.13;;
12467;SDS011;57850;52.922;6.256;2023-03-25T09:54:32;17.30;;;4.78;;
12467;SDS011;57850;52.922;6.256;2023-03-25T09:57:05;16.65;;;4.18;;
12467;SDS011;57850;52.922;6.256;2023-03-25T09:59:38;11.90;;;3.35;;
12467;SDS011;57850;52.922;6.256;2023-03-25T10:02:13;18.65;;;3.70;;
12467;SDS011;57850;52.922;6.256;2023-03-25T10:04:57;19.85;;;3.92;;
12467;SDS011;57850;52.922;6.256;2023-03-25T10:07:36;16.65;;;4.00;;
12467;SDS011;57850;52.922;6.256;2023-03-25T10:10:13;23.33;;;4.03;;
12467;SDS011;57850;52.922;6.256;2023-03-25T10:12:50;17.73;;;4.75;;
12467;SDS011;57850;52.922;6.256;2023-03-25T10:15:25;12.85;;;3.70;;
12467;SDS011;57850;52.922;6.256;2023-03-25T10:18:02;17.42;;;3.83;;
12467;SDS011;57850;52.922;6.256;2023-03-25T10:20:41;15.70;;;4.60;;
12467;SDS011;57850;52.922;6.256;2023-03-25T10:23:16;20.02;;;4.20;;
12467;SDS011;57850;52.922;6.256;2023-03-25T10:25:54;17.27;;;4.28;;
12467;SDS011;57850;52.922;6.256;2023-03-25T10:28:26;23.63;;;4.78;;
12467;SDS011;57850;52.922;6.256;2023-03-25T10:30:57;20.90;;;4.47;;
12467;SDS011;57850;52.922;6.256;2023-03-25T10:33:27;19.98;;;4.40;;
12467;SDS011;57850;52.922;6.256;2023-03-25T10:36:00;16.35;;;4.10;;
12467;SDS011;57850;52.922;6.256;2023-03-25T10:38:29;15.07;;;4.22;;
12467;SDS011;57850;52.922;6.256;2023-03-25T10:41:02;19.85;;;4.22;;
12467;SDS011;57850;52.922;6.256;2023-03-25T10:43:37;17.73;;;4.40;;
12467;SDS011;57850;52.922;6.256;2023-03-25T10:46:07;20.48;;;4.18;;
12467;SDS011;57850;52.922;6.256;2023-03-25T10:48:41;21.23;;;4.15;;
12467;SDS011;57850;52.922;6.256;2023-03-25T10:51:08;18.45;;;4.10;;
12467;SDS011;57850;52.922;6.256;2023-03-25T10:53:36;16.55;;;3.42;;
12467;SDS011;57850;52.922;6.256;2023-03-25T10:56:08;18.20;;;3.95;;
12467;SDS011;57850;52.922;6.256;2023-03-25T10:58:38;15.45;;;4.18;;
12467;SDS011;57850;52.922;6.256;2023-03-25T11:01:09;13.48;;;3.20;;
12467;SDS011;57850;52.922;6.256;2023-03-25T11:03:37;12.88;;;3.47;;
12467;SDS011;57850;52.922;6.256;2023-03-25T11:06:08;16.58;;;4.05;;
12467;SDS011;57850;52.922;6.256;2023-03-25T11:08:56;14.65;;;4.00;;
12467;SDS011;57850;52.922;6.256;2023-03-25T11:11:31;17.92;;;4.45;;
12467;SDS011;57850;52.922;6.256;2023-03-25T11:13:58;19.17;;;3.67;;
12467;SDS011;57850;52.922;6.256;2023-03-25T11:16:24;21.05;;;4.65;;
12467;SDS011;57850;52.922;6.256;2023-03-25T11:18:52;19.73;;;4.15;;
12467;SDS011;57850;52.922;6.256;2023-03-25T11:21:18;18.13;;;4.25;;
12467;SDS011;57850;52.922;6.256;2023-03-25T11:23:46;22.00;;;3.28;;
12467;SDS011;57850;52.922;6.256;2023-03-25T11:26:17;12.13;;;4.03;;
12467;SDS011;57850;52.922;6.256;2023-03-25T11:28:47;16.88;;;3.53;;
12467;SDS011;57850;52.922;6.256;2023-03-25T11:31:15;14.68;;;3.33;;
12467;SDS011;57850;52.922;6.256;2023-03-25T11:33:43;19.35;;;4.55;;
12467;SDS011;57850;52.922;6.256;2023-03-25T11:36:21;15.40;;;4.00;;
12467;SDS011;57850;52.922;6.256;2023-03-25T11:38:55;11.40;;;3.72;;
12467;SDS011;57850;52.922;6.256;2023-03-25T11:41:23;15.60;;;3.75;;
12467;SDS011;57850;52.922;6.256;2023-03-25T11:43:55;11.55;;;2.60;;
12467;SDS011;57850;52.922;6.256;2023-03-25T11:46:22;16.50;;;3.65;;
12467;SDS011;57850;52.922;6.256;2023-03-25T11:48:49;14.40;;;3.70;;
12467;SDS011;57850;52.922;6.256;2023-03-25T11:51:18;12.45;;;3.10;;
12467;SDS011;57850;52.922;6.256;2023-03-25T11:53:47;13.13;;;3.30;;
12467;SDS011;57850;52.922;6.256;2023-03-25T11:56:19;11.98;;;3.53;;
12467;SDS011;57850;52.922;6.256;2023-03-25T11:58:52;16.20;;;3.72;;
12467;SDS011;57850;52.922;6.256;2023-03-25T12:01:27;19.60;;;3.78;;
12467;SDS011;57850;52.922;6.256;2023-03-25T12:04:05;13.05;;;3.28;;
12467;SDS011;57850;52.922;6.256;2023-03-25T12:06:33;15.60;;;4.35;;
12467;SDS011;57850;52.922;6.256;2023-03-25T12:09:02;22.33;;;4.13;;
12467;SDS011;57850;52.922;6.256;2023-03-25T12:11:34;13.88;;;3.53;;
12467;SDS011;57850;52.922;6.256;2023-03-25T12:14:14;14.60;;;2.92;;
12467;SDS011;57850;52.922;6.256;2023-03-25T12:16:53;19.02;;;4.10;;
12467;SDS011;57850;52.922;6.256;2023-03-25T12:19:32;13.13;;;4.03;;
12467;SDS011;57850;52.922;6.256;2023-03-25T12:22:10;13.43;;;3.63;;
12467;SDS011;57850;52.922;6.256;2023-03-25T12:24:58;17.50;;;4.15;;
12467;SDS011;57850;52.922;6.256;2023-03-25T12:27:40;15.93;;;3.65;;
12467;SDS011;57850;52.922;6.256;2023-03-25T12:30:21;13.80;;;3.50;;
12467;SDS011;57850;52.922;6.256;2023-03-25T12:33:00;17.33;;;3.83;;
12467;SDS011;57850;52.922;6.256;2023-03-25T12:35:40;12.38;;;3.85;;
12467;SDS011;57850;52.922;6.256;2023-03-25T12:38:14;15.20;;;4.00;;
12467;SDS011;57850;52.922;6.256;2023-03-25T12:40:56;17.30;;;3.30;;
12467;SDS011;57850;52.922;6.256;2023-03-25T12:43:35;13.52;;;3.15;;
12467;SDS011;57850;52.922;6.256;2023-03-25T12:46:14;14.20;;;3.05;;
12467;SDS011;57850;52.922;6.256;2023-03-25T12:48:51;11.68;;;2.95;;
12467;SDS011;57850;52.922;6.256;2023-03-25T12:51:33;11.98;;;3.50;;
12467;SDS011;57850;52.922;6.256;2023-03-25T12:54:12;15.52;;;3.90;;
12467;SDS011;57850;52.922;6.256;2023-03-25T12:56:55;11.90;;;3.00;;
12467;SDS011;57850;52.922;6.256;2023-03-25T13:05:53;13.15;;;3.53;;
12467;SDS011;57850;52.922;6.256;2023-03-25T13:08:26;17.13;;;3.65;;
12467;SDS011;57850;52.922;6.256;2023-03-25T13:10:59;13.70;;;3.47;;
12467;SDS011;57850;52.922;6.256;2023-03-25T13:13:31;8.95;;;3.03;;
12467;SDS011;57850;52.922;6.256;2023-03-25T13:16:01;10.88;;;3.08;;
12467;SDS011;57850;52.922;6.256;2023-03-25T13:18:35;12.75;;;3.67;;
12467;SDS011;57850;52.922;6.256;2023-03-25T13:21:07;14.80;;;3.40;;
12467;SDS011;57850;52.922;6.256;2023-03-25T13:23:36;15.60;;;3.67;;
12467;SDS011;57850;52.922;6.256;2023-03-25T13:26:06;11.45;;;3.30;;
12467;SDS011;57850;52.922;6.256;2023-03-25T13:28:36;11.80;;;3.22;;
12467;SDS011;57850;52.922;6.256;2023-03-25T13:31:08;16.05;;;2.88;;
12467;SDS011;57850;52.922;6.256;2023-03-25T13:33:41;15.25;;;3.45;;
12467;SDS011;57850;52.922;6.256;2023-03-25T13:36:13;13.45;;;3.28;;
12467;SDS011;57850;52.922;6.256;2023-03-25T13:38:45;13.02;;;3.15;;
12467;SDS011;57850;52.922;6.256;2023-03-25T13:41:15;12.45;;;3.42;;
12467;SDS011;57850;52.922;6.256;2023-03-25T13:43:48;13.15;;;3.42;;
12467;SDS011;57850;52.922;6.256;2023-03-25T13:46:22;12.75;;;3.25;;
12467;SDS011;57850;52.922;6.256;2023-03-25T13:48:55;14.68;;;3.50;;
12467;SDS011;57850;52.922;6.256;2023-03-25T13:51:26;12.88;;;3.38;;
12467;SDS011;57850;52.922;6.256;2023-03-25T13:53:53;12.50;;;2.95;;
12467;SDS011;57850;52.922;6.256;2023-03-25T14:06:08;12.45;;;2.58;;
12467;SDS011;57850;52.922;6.256;2023-03-25T14:09:04;14.75;;;2.90;;
12467;SDS011;57850;52.922;6.256;2023-03-25T14:11:50;11.43;;;2.20;;
12467;SDS011;57850;52.922;6.256;2023-03-25T14:14:26;10.18;;;2.13;;
12467;SDS011;57850;52.922;6.256;2023-03-25T14:16:58;12.02;;;2.03;;
12467;SDS011;57850;52.922;6.256;2023-03-25T14:19:26;5.78;;;1.77;;
12467;SDS011;57850;52.922;6.256;2023-03-25T14:21:58;4.40;;;1.83;;
12467;SDS011;57850;52.922;6.256;2023-03-25T14:24:25;8.55;;;2.17;;
12467;SDS011;57850;52.922;6.256;2023-03-25T14:26:55;8.32;;;2.25;;
12467;SDS011;57850;52.922;6.256;2023-03-25T14:29:30;6.38;;;1.88;;
12467;SDS011;57850;52.922;6.256;2023-03-25T14:32:04;8.55;;;1.95;;
12467;SDS011;57850;52.922;6.256;2023-03-25T14:34:50;11.27;;;2.20;;
12467;SDS011;57850;52.922;6.256;2023-03-25T14:37:22;6.35;;;2.28;;
12467;SDS011;57850;52.922;6.256;2023-03-25T14:39:55;9.50;;;3.10;;
12467;SDS011;57850;52.922;6.256;2023-03-25T14:42:27;13.55;;;3.00;;
12467;SDS011;57850;52.922;6.256;2023-03-25T14:48:17;12.23;;;2.60;;
12467;SDS011;57850;52.922;6.256;2023-03-25T14:50:52;15.45;;;2.70;;
12467;SDS011;57850;52.922;6.256;2023-03-25T14:53:32;15.52;;;3.25;;
12467;SDS011;57850;52.922;6.256;2023-03-25T14:55:59;16.10;;;3.40;;
12467;SDS011;57850;52.922;6.256;2023-03-25T14:58:30;10.68;;;2.40;;
12467;SDS011;57850;52.922;6.256;2023-03-25T15:00:57;10.88;;;3.35;;
12467;SDS011;57850;52.922;6.256;2023-03-25T15:03:30;8.15;;;2.08;;
12467;SDS011;57850;52.922;6.256;2023-03-25T15:06:00;10.00;;;2.45;;
12467;SDS011;57850;52.922;6.256;2023-03-25T15:08:28;7.18;;;2.15;;
12467;SDS011;57850;52.922;6.256;2023-03-25T15:11:05;7.72;;;2.50;;
12467;SDS011;57850;52.922;6.256;2023-03-25T15:13:34;10.77;;;2.50;;
12467;SDS011;57850;52.922;6.256;2023-03-25T15:16:03;14.25;;;3.20;;
12467;SDS011;57850;52.922;6.256;2023-03-25T15:21:31;5.47;;;2.40;;
12467;SDS011;57850;52.922;6.256;2023-03-25T15:24:18;9.68;;;2.33;;
12467;SDS011;57850;52.922;6.256;2023-03-25T15:26:50;8.85;;;2.35;;